Flight Track Log - Related Links

Times and Time Zones

All times are in EDT time to prevent confusion due to time zone crossing. See the N5FT flight status page for this flight to view local times or setup timezone preferences in your user account.

Time Position Orientation Groundspeed Altitude Reporting Facility
EDT Latitude Longitude Course Direction KTS MPH feet Rate Location/Type
Fri 08:16:24 PM 29.6386 -95.2792 150° Southeast 95 109 500  Level Houston Center
Fri 08:17:31 PM 29.6142 -95.2628 150° Southeast 89 102 1,500 824 Climbing Houston Center
Fri 08:18:06 PM 29.6022 -95.2539 147° Southeast 99 114 1,900 688 Climbing Houston Center
Fri 08:19:07 PM 29.5764 -95.2406 156° South 101 116 2,600 585 Climbing Houston Center
Fri 08:20:09 PM 29.5519 -95.2225 147° Southeast 120 138 3,100 194 Climbing Houston Center
Fri 08:21:11 PM 29.5683 -95.1747 68° East 135 155 3,000 -48 Descending Houston Center
Fri 08:22:13 PM 29.5811 -95.1339 70° East 138 159 3,000  Level Houston Center
Fri 08:23:15 PM 29.5953 -95.0936 68° East 139 160 3,000 49 Level Houston Center
Fri 08:24:16 PM 29.6261 -95.0636 40° Northeast 147 169 3,100 49 Climbing Houston Center
Fri 08:25:18 PM 29.6617 -95.0422 28° Northeast 149 171 3,100 484 Level Houston Center
Fri 08:26:20 PM 29.7033 -95.0303 14° North 132 152 4,100 484 Climbing Houston Center
Fri 08:27:22 PM 29.7386 -95.0217 12° North 128 147 4,100  Level Houston Center
Fri 08:28:24 PM 29.7772 -95.0117 13° North 139 160 4,100  Level Houston Center
Fri 08:29:25 PM 29.8161 -95.0008 14° North 144 166 4,100  Level Houston Center
Fri 08:30:27 PM 29.8550 -94.9897 14° North 145 167 4,100  Level Houston Center
Fri 08:31:29 PM 29.8961 -94.9847 North 148 170 4,100  Level Houston Center
Fri 08:32:30 PM 29.9444 -94.9825 North 146 168 4,100  Level Houston Center
Fri 08:33:32 PM 29.9850 -94.9822 360° North 146 168 4,100  Level Houston Center
Fri 08:34:34 PM 30.0264 -94.9789 North 149 171 4,100  Level Houston Center
Fri 08:35:36 PM 30.0683 -94.9769 North 150 173 4,100  Level Houston Center
Fri 08:36:37 PM 30.1100 -94.9744 North 149 171 4,100  Level Houston Center
Fri 08:37:39 PM 30.1494 -94.9797 353° North 145 167 4,100 131 Level Houston Center
Fri 08:38:54 PM 30.2019 -95.0122 332° Northwest 145 167 4,400 488 Climbing Houston Center
Fri 08:39:42 PM 30.2261 -95.0242 337° Northwest 126 145 5,100 491 Climbing Houston Center
Fri 08:40:44 PM 30.2583 -95.0425 334° Northwest 129 148 5,300 484 Climbing Houston Center
Fri 08:41:46 PM 30.2864 -95.0594 332° Northwest 116 133 6,100 634 Climbing Houston Center
Fri 08:42:47 PM 30.3175 -95.0772 334° Northwest 121 139 6,600 585 Climbing Houston Center
Fri 08:43:49 PM 30.3475 -95.0953 333° Northwest 123 142 7,300 629 Climbing Houston Center
Fri 08:44:51 PM 30.3750 -95.1108 334° Northwest 113 130 7,900 358 Climbing Houston Center
Fri 08:46:03 PM 30.4214 -95.1375 334° Northwest 150 173 8,100 98 Climbing Houston Center
Fri 08:46:54 PM 30.4492 -95.1531 334° Northwest 145 167 8,100  Level Houston Center
Fri 08:47:56 PM 30.4878 -95.1769 332° Northwest 154 177 8,100  Level Houston Center
Fri 08:48:58 PM 30.5264 -95.1994 333° Northwest 155 178 8,100  Level Houston Center
Fri 08:49:59 PM 30.5647 -95.2211 334° Northwest 154 177 8,100  Level Houston Center
Fri 08:51:01 PM 30.6106 -95.2489 332° Northwest 153 176 8,100  Level Houston Center
Fri 08:52:03 PM 30.6500 -95.2711 334° Northwest 155 178 8,100  Level Houston Center
Fri 08:53:04 PM 30.6897 -95.2950 333° Northwest 159 183 8,100  Level Houston Center
Fri 08:54:06 PM 30.7300 -95.3178 334° Northwest 160 184 8,100  Level Houston Center
Fri 08:55:07 PM 30.7678 -95.3394 334° Northwest 155 178 8,100  Level Houston Center
Fri 08:56:09 PM 30.8075 -95.3628 333° Northwest 157 181 8,100  Level Houston Center
Fri 08:57:11 PM 30.8469 -95.3872 332° Northwest 159 183 8,100  Level Houston Center
Fri 08:58:12 PM 30.8878 -95.4008 344° North 153 176 8,100  Level Houston Center
Fri 08:59:14 PM 30.9386 -95.4175 344° North 155 178 8,100  Level Houston Center
Fri 09:00:15 PM 30.9806 -95.4336 342° North 157 181 8,100  Level Houston Center
Fri 09:01:17 PM 31.0208 -95.4492 342° North 153 176 8,100  Level Houston Center
Fri 09:02:18 PM 31.0608 -95.4675 339° North 153 176 8,100  Level Houston Center
Fri 09:03:20 PM 31.1011 -95.4842 340° North 153 176 8,100  Level Houston Center
Fri 09:04:21 PM 31.1419 -95.5031 338° Northwest 155 178 8,100 244 Level Houston Center
Fri 09:05:23 PM 31.1803 -95.5194 340° North 151 174 8,600 488 Climbing Houston Center
Fri 09:06:24 PM 31.2131 -95.5333 340° North 136 157 9,100 488 Climbing Houston Center
Fri 09:07:26 PM 31.2436 -95.5525 332° Northwest 128 147 9,600 488 Climbing Houston Center
Fri 09:08:27 PM 31.2747 -95.5694 335° Northwest 124 143 10,100 246 Climbing Houston Center
Fri 09:09:28 PM 31.3217 -95.5833 346° North 138 159 10,100  Level Houston Center
Fri 09:10:30 PM 31.3639 -95.5942 348° North 149 171 10,100  Level Houston Center
Fri 09:11:31 PM 31.4042 -95.6106 341° North 152 175 10,100  Level Houston Center
Fri 09:12:32 PM 31.4431 -95.6283 339° North 150 173 10,100 -49 Level Houston Center
Fri 09:13:33 PM 31.4808 -95.6497 334° Northwest 151 174 10,000 -49 Descending Houston Center
Fri 09:14:35 PM 31.5181 -95.6706 334° Northwest 149 171 10,000 49 Level Houston Center
Fri 09:15:36 PM 31.5553 -95.6925 333° Northwest 150 173 10,100 49 Climbing Houston Center
Fri 09:16:37 PM 31.5942 -95.7136 335° Northwest 153 176 10,100  Level Houston Center
Fri 09:17:37 PM 31.6383 -95.7247 348° North 154 177 10,100  Level Fort Worth Center
Fri 09:18:36 PM 31.6761 -95.7267 357° North 144 166 10,100 -50 Level Fort Worth Center
Fri 09:19:36 PM 31.7136 -95.7283 358° North 144 166 10,000  Descending Fort Worth Center
Fri 09:20:36 PM 31.7453 -95.7569 322° Northwest 139 160 10,100 50 Climbing Fort Worth Center
Fri 09:21:36 PM 31.7769 -95.7883 320° Northwest 145 167 10,100  Level Fort Worth Center
Fri 09:22:36 PM 31.8108 -95.8194 322° Northwest 150 173 10,100  Level Fort Worth Center
Fri 09:23:37 PM 31.8467 -95.8481 326° Northwest 156 180 10,100  Level Fort Worth Center
Fri 09:24:37 PM 31.8761 -95.8744 323° Northwest 156 180 10,100  Level Fort Worth Center
Fri 09:25:37 PM 31.9100 -95.9058 322° Northwest 156 180 10,100  Level Fort Worth Center
Fri 09:26:37 PM 31.9458 -95.9369 324° Northwest 156 180 10,100 -150 Level Fort Worth Center
Fri 09:27:37 PM 31.9839 -95.9683 325° Northwest 161 185 9,800 -303 Descending Fort Worth Center
Fri 09:28:36 PM 32.0175 -95.9997 322° Northwest 161 185 9,500 -350 Descending Fort Worth Center
Fri 09:29:37 PM 32.0533 -96.0261 328° Northwest 156 180 9,100 -450 Descending Fort Worth Center
Fri 09:30:36 PM 32.0872 -96.0597 320° Northwest 156 180 8,600 -504 Descending Fort Worth Center
Fri 09:31:36 PM 32.1231 -96.0911 323° Northwest 156 180 8,100 -500 Descending Fort Worth Center
Fri 09:32:36 PM 32.1567 -96.1225 322° Northwest 156 180 7,600 -400 Descending Fort Worth Center
Fri 09:33:36 PM 32.1944 -96.1514 327° Northwest 161 185 7,300 -400 Descending Fort Worth Center
Fri 09:34:36 PM 32.2283 -96.1806 324° Northwest 161 185 6,800 -550 Descending Fort Worth Center
Fri 09:35:36 PM 32.2639 -96.2119 323° Northwest 156 180 6,200 -500 Descending Fort Worth Center
Fri 09:36:36 PM 32.2978 -96.2436 322° Northwest 156 180 5,800 -450 Descending Fort Worth Center
Fri 09:37:36 PM 32.3314 -96.2725 324° Northwest 156 180 5,300 -450 Descending Fort Worth Center
Fri 09:38:36 PM 32.3631 -96.3042 320° Northwest 156 180 4,900 -600 Descending Fort Worth Center
Fri 09:39:36 PM 32.3986 -96.3333 325° Northwest 156 180 4,100 -450 Descending Fort Worth Center
Fri 09:40:36 PM 32.4303 -96.3625 322° Northwest 156 180 4,000 -50 Descending Fort Worth Center
Fri 09:41:36 PM 32.4639 -96.3842 331° Northwest 144 166 4,000  Level Fort Worth Center
Fri 09:42:36 PM 32.4994 -96.4036 335° Northwest 139 160 4,000 50 Level Fort Worth Center
Fri 09:43:36 PM 32.5372 -96.4203 340° North 146 168 4,100 -50 Climbing Fort Worth Center
Fri 09:44:37 PM 32.5811 -96.4444 335° Northwest 157 181 3,900 -500 Descending Fort Worth Center
Fri 09:45:36 PM 32.6169 -96.4689 330° Northwest 157 181 3,100 -504 Descending Fort Worth Center
Fri 09:46:36 PM 32.6547 -96.4981 327° Northwest 163 188 2,900 -200 Descending Fort Worth Center
Fri 09:50:00 PM 32.7112 -96.5093 344° North  Level FlightAware Approximate
Fri 09:57:00 PM 32.7333 -96.5167 344° North  Level FlightAware Approximate
Fri 09:58:00 PM 32.7470 -96.5304 344° North  Level Estimated
Fri 09:59:00 PM 32.7470 -96.5304 344° North  Level Estimated
Fri 10:00:00 PM 32.7470 -96.5304 344° North  Level Estimated
Fri 10:01:00 PM 32.7470 -96.5304 344° North  Level Estimated
Fri 10:02:00 PM 32.7470 -96.5304 344° North  Level Estimated
Fri 10:03:00 PM 32.7470 -96.5304 344° North  Level Estimated
Fri 10:04:00 PM 32.7470 -96.5304 344° North  Level Estimated
Fri 10:05:00 PM 32.7470 -96.5304 344° North  Level Estimated
Fri 10:06:00 PM 32.7470 -96.5304 344° North  Level Estimated
Fri 10:07:00 PM 32.7470 -96.5304 344° North  Level Estimated
Fri 10:08:00 PM 32.7470 -96.5304 344° North  Level Estimated
Fri 10:09:00 PM 32.7470 -96.5304 344° North  Level Estimated

Login

Don't have an account? Register now (free) for customized features, flight alerts, and more!